sensor_id;sensor_type;location;lat;lon;timestamp;pressure;altitude;pressure_sealevel;temperature;humidity
27358;BME280;14831;50.474;7.616;2024-03-02T00:02:48;96620;;;5.5;79.0
27358;BME280;14831;50.474;7.616;2024-03-02T00:07:52;96630;;;5.5;79.5
27358;BME280;14831;50.474;7.616;2024-03-02T00:12:47;96630;;;5.5;79.4
27358;BME280;14831;50.474;7.616;2024-03-02T00:17:47;96630;;;5.6;79.3
27358;BME280;14831;50.474;7.616;2024-03-02T00:22:47;96630;;;5.6;79.3
27358;BME280;14831;50.474;7.616;2024-03-02T00:27:47;96630;;;5.6;78.6
27358;BME280;14831;50.474;7.616;2024-03-02T00:32:47;96630;;;5.6;78.1
27358;BME280;14831;50.474;7.616;2024-03-02T00:37:47;96620;;;5.6;78.7
27358;BME280;14831;50.474;7.616;2024-03-02T00:42:47;96620;;;5.6;78.6
27358;BME280;14831;50.474;7.616;2024-03-02T00:47:47;96620;;;5.6;79.1
27358;BME280;14831;50.474;7.616;2024-03-02T00:52:47;96610;;;5.6;79.3
27358;BME280;14831;50.474;7.616;2024-03-02T00:57:47;96610;;;5.5;79.3
27358;BME280;14831;50.474;7.616;2024-03-02T01:02:47;96610;;;5.6;79.3
27358;BME280;14831;50.474;7.616;2024-03-02T01:07:47;96610;;;5.6;78.9
27358;BME280;14831;50.474;7.616;2024-03-02T01:12:47;96600;;;5.6;78.3
27358;BME280;14831;50.474;7.616;2024-03-02T01:17:47;96580;;;5.7;77.3
27358;BME280;14831;50.474;7.616;2024-03-02T01:22:47;96590;;;5.7;77.1
27358;BME280;14831;50.474;7.616;2024-03-02T01:27:47;96580;;;5.7;76.6
27358;BME280;14831;50.474;7.616;2024-03-02T01:32:47;96580;;;5.7;76.6
27358;BME280;14831;50.474;7.616;2024-03-02T01:37:47;96590;;;5.7;76.3
27358;BME280;14831;50.474;7.616;2024-03-02T01:42:47;96580;;;5.7;75.8
27358;BME280;14831;50.474;7.616;2024-03-02T01:47:47;96570;;;5.7;75.2
27358;BME280;14831;50.474;7.616;2024-03-02T01:52:47;96570;;;5.7;75.3
27358;BME280;14831;50.474;7.616;2024-03-02T01:57:48;96570;;;5.6;75.5
27358;BME280;14831;50.474;7.616;2024-03-02T02:02:47;96570;;;5.6;75.4
27358;BME280;14831;50.474;7.616;2024-03-02T02:07:47;96570;;;5.6;75.7
27358;BME280;14831;50.474;7.616;2024-03-02T02:12:47;96570;;;5.5;76.0
27358;BME280;14831;50.474;7.616;2024-03-02T02:17:47;96560;;;5.5;76.2
27358;BME280;14831;50.474;7.616;2024-03-02T02:22:55;96560;;;5.4;76.2
27358;BME280;14831;50.474;7.616;2024-03-02T02:27:47;96550;;;5.3;76.3
27358;BME280;14831;50.474;7.616;2024-03-02T02:32:47;96550;;;5.3;76.1
27358;BME280;14831;50.474;7.616;2024-03-02T02:37:47;96540;;;5.2;76.5
27358;BME280;14831;50.474;7.616;2024-03-02T02:42:47;96540;;;5.2;76.8
27358;BME280;14831;50.474;7.616;2024-03-02T02:47:47;96540;;;5.1;77.1
27358;BME280;14831;50.474;7.616;2024-03-02T02:52:47;96530;;;5.1;77.4
27358;BME280;14831;50.474;7.616;2024-03-02T02:57:47;96540;;;5.1;77.3
27358;BME280;14831;50.474;7.616;2024-03-02T03:02:48;96520;;;5.1;77.3
27358;BME280;14831;50.474;7.616;2024-03-02T03:07:47;96510;;;5.1;77.4
27358;BME280;14831;50.474;7.616;2024-03-02T03:12:47;96520;;;5.0;77.5
27358;BME280;14831;50.474;7.616;2024-03-02T03:17:47;96520;;;5.1;77.2
27358;BME280;14831;50.474;7.616;2024-03-02T03:22:47;96520;;;5.1;77.5
27358;BME280;14831;50.474;7.616;2024-03-02T03:27:47;96520;;;5.0;78.0
27358;BME280;14831;50.474;7.616;2024-03-02T03:32:47;96530;;;4.9;78.2
27358;BME280;14831;50.474;7.616;2024-03-02T03:37:47;96540;;;4.9;78.5
27358;BME280;14831;50.474;7.616;2024-03-02T03:42:47;96530;;;4.9;78.6
27358;BME280;14831;50.474;7.616;2024-03-02T03:47:47;96530;;;4.9;78.2
27358;BME280;14831;50.474;7.616;2024-03-02T03:52:47;96540;;;4.8;79.0
27358;BME280;14831;50.474;7.616;2024-03-02T03:57:48;96530;;;4.7;79.4
27358;BME280;14831;50.474;7.616;2024-03-02T04:02:47;96540;;;4.6;79.9
27358;BME280;14831;50.474;7.616;2024-03-02T04:07:47;96540;;;4.6;80.2
27358;BME280;14831;50.474;7.616;2024-03-02T04:12:48;96540;;;4.5;80.6
27358;BME280;14831;50.474;7.616;2024-03-02T04:17:47;96540;;;4.5;80.6
27358;BME280;14831;50.474;7.616;2024-03-02T04:22:47;96540;;;4.4;81.0
27358;BME280;14831;50.474;7.616;2024-03-02T04:27:47;96540;;;4.3;81.4
27358;BME280;14831;50.474;7.616;2024-03-02T04:32:47;96540;;;4.2;81.8
27358;BME280;14831;50.474;7.616;2024-03-02T04:37:47;96540;;;4.3;81.9
27358;BME280;14831;50.474;7.616;2024-03-02T04:42:47;96540;;;4.3;82.0
27358;BME280;14831;50.474;7.616;2024-03-02T04:47:47;96550;;;4.3;82.3
27358;BME280;14831;50.474;7.616;2024-03-02T04:52:47;96550;;;4.4;81.6
27358;BME280;14831;50.474;7.616;2024-03-02T04:57:48;96560;;;4.5;81.5
27358;BME280;14831;50.474;7.616;2024-03-02T05:02:47;96570;;;4.6;81.0
27358;BME280;14831;50.474;7.616;2024-03-02T05:07:47;96580;;;4.7;80.8
27358;BME280;14831;50.474;7.616;2024-03-02T05:12:47;96580;;;4.8;80.0
27358;BME280;14831;50.474;7.616;2024-03-02T05:17:47;96590;;;4.9;79.5
27358;BME280;14831;50.474;7.616;2024-03-02T05:22:47;96590;;;5.0;79.3
27358;BME280;14831;50.474;7.616;2024-03-02T05:27:47;96600;;;5.0;79.1
27358;BME280;14831;50.474;7.616;2024-03-02T05:32:47;96600;;;4.9;79.0
27358;BME280;14831;50.474;7.616;2024-03-02T05:37:47;96590;;;4.9;79.8
27358;BME280;14831;50.474;7.616;2024-03-02T05:42:47;96590;;;4.8;80.2
27358;BME280;14831;50.474;7.616;2024-03-02T05:47:47;96600;;;4.8;80.5
27358;BME280;14831;50.474;7.616;2024-03-02T05:52:47;96590;;;4.7;80.9
27358;BME280;14831;50.474;7.616;2024-03-02T05:57:47;96590;;;4.7;80.7
27358;BME280;14831;50.474;7.616;2024-03-02T06:02:47;96610;;;4.8;80.8
27358;BME280;14831;50.474;7.616;2024-03-02T06:07:47;96610;;;4.9;79.9
27358;BME280;14831;50.474;7.616;2024-03-02T06:12:47;96610;;;4.9;80.0
27358;BME280;14831;50.474;7.616;2024-03-02T06:17:47;96610;;;5.0;80.0
27358;BME280;14831;50.474;7.616;2024-03-02T06:22:47;96610;;;5.0;79.7
27358;BME280;14831;50.474;7.616;2024-03-02T06:27:47;96620;;;5.1;78.8
27358;BME280;14831;50.474;7.616;2024-03-02T06:32:47;96620;;;5.1;79.1
27358;BME280;14831;50.474;7.616;2024-03-02T06:37:47;96610;;;5.1;79.6
27358;BME280;14831;50.474;7.616;2024-03-02T06:42:47;96630;;;5.1;78.9
27358;BME280;14831;50.474;7.616;2024-03-02T06:47:47;96640;;;5.2;79.0
27358;BME280;14831;50.474;7.616;2024-03-02T06:52:47;96650;;;5.3;78.6
27358;BME280;14831;50.474;7.616;2024-03-02T06:57:48;96650;;;5.3;77.9
27358;BME280;14831;50.474;7.616;2024-03-02T07:02:47;96650;;;5.4;77.4
27358;BME280;14831;50.474;7.616;2024-03-02T07:07:47;96650;;;5.5;77.3
27358;BME280;14831;50.474;7.616;2024-03-02T07:12:47;96650;;;5.5;77.0
27358;BME280;14831;50.474;7.616;2024-03-02T07:17:47;96660;;;5.5;77.5
27358;BME280;14831;50.474;7.616;2024-03-02T07:22:47;96660;;;5.6;76.6
27358;BME280;14831;50.474;7.616;2024-03-02T07:27:47;96660;;;5.6;76.6
27358;BME280;14831;50.474;7.616;2024-03-02T07:32:49;96670;;;5.6;76.9
27358;BME280;14831;50.474;7.616;2024-03-02T07:37:47;96670;;;5.6;76.7
27358;BME280;14831;50.474;7.616;2024-03-02T07:42:47;96660;;;5.6;76.8
27358;BME280;14831;50.474;7.616;2024-03-02T07:47:47;96660;;;5.6;76.6
27358;BME280;14831;50.474;7.616;2024-03-02T07:52:47;96670;;;5.6;77.0
27358;BME280;14831;50.474;7.616;2024-03-02T07:57:47;96660;;;5.8;77.0
27358;BME280;14831;50.474;7.616;2024-03-02T08:02:47;96670;;;5.9;76.1
27358;BME280;14831;50.474;7.616;2024-03-02T08:07:47;96680;;;6.1;75.5
27358;BME280;14831;50.474;7.616;2024-03-02T08:12:47;96680;;;6.2;75.1
27358;BME280;14831;50.474;7.616;2024-03-02T08:17:47;96690;;;6.4;74.9
27358;BME280;14831;50.474;7.616;2024-03-02T08:22:47;96690;;;6.5;74.0
27358;BME280;14831;50.474;7.616;2024-03-02T08:27:47;96680;;;6.7;74.0
27358;BME280;14831;50.474;7.616;2024-03-02T08:32:47;96690;;;7.0;73.6
27358;BME280;14831;50.474;7.616;2024-03-02T08:37:47;96690;;;7.3;72.5
27358;BME280;14831;50.474;7.616;2024-03-02T08:42:47;96690;;;7.4;71.3
27358;BME280;14831;50.474;7.616;2024-03-02T08:47:48;96690;;;7.5;70.1
27358;BME280;14831;50.474;7.616;2024-03-02T08:52:47;96690;;;7.6;69.4
27358;BME280;14831;50.474;7.616;2024-03-02T08:57:47;96690;;;7.8;71.1
27358;BME280;14831;50.474;7.616;2024-03-02T09:02:47;96680;;;7.9;69.6
27358;BME280;14831;50.474;7.616;2024-03-02T09:07:47;96670;;;8.1;69.2
27358;BME280;14831;50.474;7.616;2024-03-02T09:12:47;96670;;;8.2;69.1
27358;BME280;14831;50.474;7.616;2024-03-02T09:17:47;96680;;;8.5;68.9
27358;BME280;14831;50.474;7.616;2024-03-02T09:22:47;96680;;;8.7;68.7
27358;BME280;14831;50.474;7.616;2024-03-02T09:27:47;96680;;;8.9;67.0
27358;BME280;14831;50.474;7.616;2024-03-02T09:32:47;96670;;;8.9;66.3
27358;BME280;14831;50.474;7.616;2024-03-02T09:37:47;96680;;;9.0;65.0
27358;BME280;14831;50.474;7.616;2024-03-02T09:42:47;96670;;;9.3;64.9
27358;BME280;14831;50.474;7.616;2024-03-02T09:47:47;96670;;;9.5;64.4
27358;BME280;14831;50.474;7.616;2024-03-02T09:52:48;96660;;;9.7;64.0
27358;BME280;14831;50.474;7.616;2024-03-02T09:57:47;96660;;;9.7;63.0
27358;BME280;14831;50.474;7.616;2024-03-02T10:02:47;96650;;;10.0;63.2
27358;BME280;14831;50.474;7.616;2024-03-02T10:07:50;96660;;;9.8;62.4
27358;BME280;14831;50.474;7.616;2024-03-02T10:12:47;96650;;;9.8;62.6
27358;BME280;14831;50.474;7.616;2024-03-02T10:17:47;96650;;;10.2;62.0
27358;BME280;14831;50.474;7.616;2024-03-02T10:22:47;96640;;;10.5;61.3
27358;BME280;14831;50.474;7.616;2024-03-02T10:27:48;96640;;;10.7;60.9
27358;BME280;14831;50.474;7.616;2024-03-02T10:32:48;96650;;;10.8;60.8
27358;BME280;14831;50.474;7.616;2024-03-02T10:37:47;96630;;;10.7;62.0
27358;BME280;14831;50.474;7.616;2024-03-02T10:42:47;96640;;;11.1;60.8
27358;BME280;14831;50.474;7.616;2024-03-02T10:47:47;96640;;;11.0;61.4
27358;BME280;14831;50.474;7.616;2024-03-02T10:52:47;96650;;;11.4;58.8
27358;BME280;14831;50.474;7.616;2024-03-02T10:57:50;96640;;;11.4;60.2
27358;BME280;14831;50.474;7.616;2024-03-02T11:02:49;96640;;;10.9;60.9
27358;BME280;14831;50.474;7.616;2024-03-02T11:07:47;96640;;;11.3;59.7
27358;BME280;14831;50.474;7.616;2024-03-02T11:12:48;96640;;;10.9;60.2
27358;BME280;14831;50.474;7.616;2024-03-02T11:17:47;96640;;;10.8;61.2
27358;BME280;14831;50.474;7.616;2024-03-02T11:22:47;96650;;;11.1;61.4
27358;BME280;14831;50.474;7.616;2024-03-02T11:28:03;96640;;;11.5;59.8
27358;BME280;14831;50.474;7.616;2024-03-02T11:32:54;96630;;;11.7;59.0
27358;BME280;14831;50.474;7.616;2024-03-02T11:37:47;96630;;;11.7;58.7
27358;BME280;14831;50.474;7.616;2024-03-02T11:42:47;96610;;;12.2;56.7
27358;BME280;14831;50.474;7.616;2024-03-02T11:47:49;96640;;;11.4;58.4
27358;BME280;14831;50.474;7.616;2024-03-02T11:52:47;96630;;;11.3;58.3
27358;BME280;14831;50.474;7.616;2024-03-02T11:57:47;96610;;;11.5;60.6
27358;BME280;14831;50.474;7.616;2024-03-02T12:02:47;96610;;;11.9;58.2
27358;BME280;14831;50.474;7.616;2024-03-02T12:07:47;96590;;;11.9;56.6
27358;BME280;14831;50.474;7.616;2024-03-02T12:12:47;96610;;;11.7;56.1
27358;BME280;14831;50.474;7.616;2024-03-02T12:17:47;96580;;;11.9;57.5
27358;BME280;14831;50.474;7.616;2024-03-02T12:22:47;96580;;;12.0;56.6
27358;BME280;14831;50.474;7.616;2024-03-02T12:27:47;96580;;;11.7;55.3
27358;BME280;14831;50.474;7.616;2024-03-02T12:32:47;96580;;;12.2;56.5
27358;BME280;14831;50.474;7.616;2024-03-02T12:37:47;96570;;;12.7;53.6
27358;BME280;14831;50.474;7.616;2024-03-02T12:42:48;96570;;;12.7;52.4
27358;BME280;14831;50.474;7.616;2024-03-02T12:47:47;96580;;;12.4;54.4
27358;BME280;14831;50.474;7.616;2024-03-02T12:52:51;96580;;;12.9;51.5
27358;BME280;14831;50.474;7.616;2024-03-02T12:57:49;96570;;;13.1;51.6
27358;BME280;14831;50.474;7.616;2024-03-02T13:02:47;96570;;;12.6;51.6
27358;BME280;14831;50.474;7.616;2024-03-02T13:07:47;96560;;;12.5;51.7
27358;BME280;14831;50.474;7.616;2024-03-02T13:12:47;96560;;;12.8;51.7
27358;BME280;14831;50.474;7.616;2024-03-02T13:17:47;96550;;;13.0;51.2
27358;BME280;14831;50.474;7.616;2024-03-02T13:22:47;96540;;;13.3;50.4
27358;BME280;14831;50.474;7.616;2024-03-02T13:27:47;96540;;;13.5;50.2
27358;BME280;14831;50.474;7.616;2024-03-02T13:32:47;96530;;;13.1;49.4
27358;BME280;14831;50.474;7.616;2024-03-02T13:37:47;96530;;;12.6;51.4
27358;BME280;14831;50.474;7.616;2024-03-02T13:42:47;96520;;;12.5;52.7
27358;BME280;14831;50.474;7.616;2024-03-02T13:47:47;96520;;;12.7;51.4
27358;BME280;14831;50.474;7.616;2024-03-02T13:52:47;96510;;;13.2;52.5
27358;BME280;14831;50.474;7.616;2024-03-02T13:57:47;96510;;;13.4;51.0
27358;BME280;14831;50.474;7.616;2024-03-02T14:02:47;96500;;;13.4;51.7
27358;BME280;14831;50.474;7.616;2024-03-02T14:07:47;96500;;;12.8;51.6
27358;BME280;14831;50.474;7.616;2024-03-02T14:12:47;96510;;;12.7;52.4
27358;BME280;14831;50.474;7.616;2024-03-02T14:17:47;96500;;;12.9;50.4
27358;BME280;14831;50.474;7.616;2024-03-02T14:22:48;96500;;;12.9;51.2
27358;BME280;14831;50.474;7.616;2024-03-02T14:27:47;96500;;;12.9;49.8
27358;BME280;14831;50.474;7.616;2024-03-02T14:32:47;96500;;;12.9;52.1
27358;BME280;14831;50.474;7.616;2024-03-02T14:37:47;96490;;;12.4;52.7
27358;BME280;14831;50.474;7.616;2024-03-02T14:42:47;96490;;;12.2;53.4
27358;BME280;14831;50.474;7.616;2024-03-02T14:47:47;96490;;;12.1;53.5
27358;BME280;14831;50.474;7.616;2024-03-02T14:52:47;96480;;;12.0;53.5
27358;BME280;14831;50.474;7.616;2024-03-02T14:57:47;96460;;;11.7;54.1
27358;BME280;14831;50.474;7.616;2024-03-02T15:02:47;96470;;;11.8;54.4
27358;BME280;14831;50.474;7.616;2024-03-02T15:07:47;96460;;;11.5;54.4
27358;BME280;14831;50.474;7.616;2024-03-02T15:12:47;96470;;;11.4;55.0
27358;BME280;14831;50.474;7.616;2024-03-02T15:17:47;96460;;;11.3;55.2
27358;BME280;14831;50.474;7.616;2024-03-02T15:22:47;96450;;;11.4;55.0
27358;BME280;14831;50.474;7.616;2024-03-02T15:27:47;96450;;;11.4;55.2
27358;BME280;14831;50.474;7.616;2024-03-02T15:32:47;96440;;;11.4;54.8
27358;BME280;14831;50.474;7.616;2024-03-02T15:37:47;96440;;;11.3;54.5
27358;BME280;14831;50.474;7.616;2024-03-02T15:42:47;96440;;;11.2;55.4
27358;BME280;14831;50.474;7.616;2024-03-02T15:47:47;96430;;;11.2;55.3
27358;BME280;14831;50.474;7.616;2024-03-02T15:52:47;96430;;;11.2;55.0
27358;BME280;14831;50.474;7.616;2024-03-02T15:57:47;96430;;;11.2;55.2
27358;BME280;14831;50.474;7.616;2024-03-02T16:02:47;96420;;;11.2;55.2
27358;BME280;14831;50.474;7.616;2024-03-02T16:07:47;96430;;;11.1;55.9
27358;BME280;14831;50.474;7.616;2024-03-02T16:12:47;96430;;;11.1;56.3
27358;BME280;14831;50.474;7.616;2024-03-02T16:17:47;96420;;;11.0;56.4
27358;BME280;14831;50.474;7.616;2024-03-02T16:22:47;96430;;;10.9;56.4
27358;BME280;14831;50.474;7.616;2024-03-02T16:27:47;96430;;;10.9;56.9
27358;BME280;14831;50.474;7.616;2024-03-02T16:32:47;96410;;;10.8;56.6
27358;BME280;14831;50.474;7.616;2024-03-02T16:37:47;96410;;;10.8;56.2
27358;BME280;14831;50.474;7.616;2024-03-02T16:42:47;96410;;;10.8;56.1
27358;BME280;14831;50.474;7.616;2024-03-02T16:47:47;96420;;;10.7;57.1
27358;BME280;14831;50.474;7.616;2024-03-02T16:52:47;96410;;;10.6;57.3
27358;BME280;14831;50.474;7.616;2024-03-02T16:57:47;96420;;;10.6;57.9
27358;BME280;14831;50.474;7.616;2024-03-02T17:02:47;96430;;;10.5;58.0
27358;BME280;14831;50.474;7.616;2024-03-02T17:07:47;96440;;;10.5;58.8
27358;BME280;14831;50.474;7.616;2024-03-02T17:12:47;96440;;;10.4;59.2
27358;BME280;14831;50.474;7.616;2024-03-02T17:17:47;96440;;;10.3;59.4
27358;BME280;14831;50.474;7.616;2024-03-02T17:22:47;96440;;;10.2;60.0
27358;BME280;14831;50.474;7.616;2024-03-02T17:27:47;96450;;;10.1;60.6
27358;BME280;14831;50.474;7.616;2024-03-02T17:32:47;96450;;;10.0;61.5
27358;BME280;14831;50.474;7.616;2024-03-02T17:37:47;96450;;;10.0;62.1
27358;BME280;14831;50.474;7.616;2024-03-02T17:42:47;96460;;;10.0;62.5
27358;BME280;14831;50.474;7.616;2024-03-02T17:47:47;96450;;;9.9;63.2
27358;BME280;14831;50.474;7.616;2024-03-02T17:52:47;96460;;;9.9;63.2
27358;BME280;14831;50.474;7.616;2024-03-02T17:57:47;96460;;;9.9;63.4
27358;BME280;14831;50.474;7.616;2024-03-02T18:02:47;96470;;;9.9;63.9
27358;BME280;14831;50.474;7.616;2024-03-02T18:07:47;96470;;;9.9;63.9
27358;BME280;14831;50.474;7.616;2024-03-02T18:12:47;96470;;;9.9;63.8
27358;BME280;14831;50.474;7.616;2024-03-02T18:17:47;96470;;;9.9;64.3
27358;BME280;14831;50.474;7.616;2024-03-02T18:22:47;96460;;;9.8;64.4
27358;BME280;14831;50.474;7.616;2024-03-02T18:27:47;96460;;;9.8;64.7
27358;BME280;14831;50.474;7.616;2024-03-02T18:32:47;96470;;;9.7;65.1
27358;BME280;14831;50.474;7.616;2024-03-02T18:37:47;96450;;;9.6;65.0
27358;BME280;14831;50.474;7.616;2024-03-02T18:42:47;96450;;;9.6;65.3
27358;BME280;14831;50.474;7.616;2024-03-02T18:47:47;96460;;;9.6;65.4
27358;BME280;14831;50.474;7.616;2024-03-02T18:52:47;96460;;;9.6;65.6
27358;BME280;14831;50.474;7.616;2024-03-02T18:57:47;96460;;;9.6;65.6
27358;BME280;14831;50.474;7.616;2024-03-02T19:02:47;96450;;;9.5;66.0
27358;BME280;14831;50.474;7.616;2024-03-02T19:07:47;96450;;;9.4;66.2
27358;BME280;14831;50.474;7.616;2024-03-02T19:12:47;96460;;;9.4;66.4
27358;BME280;14831;50.474;7.616;2024-03-02T19:17:47;96450;;;9.3;66.8
27358;BME280;14831;50.474;7.616;2024-03-02T19:22:47;96440;;;9.3;66.6
27358;BME280;14831;50.474;7.616;2024-03-02T19:27:47;96440;;;9.2;66.7
27358;BME280;14831;50.474;7.616;2024-03-02T19:32:47;96440;;;9.1;67.2
27358;BME280;14831;50.474;7.616;2024-03-02T19:37:47;96440;;;9.1;67.4
27358;BME280;14831;50.474;7.616;2024-03-02T19:42:47;96440;;;9.0;67.6
27358;BME280;14831;50.474;7.616;2024-03-02T19:47:47;96430;;;8.9;67.9
27358;BME280;14831;50.474;7.616;2024-03-02T19:52:47;96430;;;8.9;68.0
27358;BME280;14831;50.474;7.616;2024-03-02T19:57:47;96420;;;8.9;68.1
27358;BME280;14831;50.474;7.616;2024-03-02T20:02:47;96420;;;8.8;68.6
27358;BME280;14831;50.474;7.616;2024-03-02T20:07:47;96420;;;8.8;68.9
27358;BME280;14831;50.474;7.616;2024-03-02T20:12:47;96410;;;8.8;68.9
27358;BME280;14831;50.474;7.616;2024-03-02T20:17:47;96400;;;8.8;69.0
27358;BME280;14831;50.474;7.616;2024-03-02T20:22:47;96390;;;8.8;69.0
27358;BME280;14831;50.474;7.616;2024-03-02T20:27:47;96400;;;8.8;69.1
27358;BME280;14831;50.474;7.616;2024-03-02T20:32:47;96400;;;8.7;69.6
27358;BME280;14831;50.474;7.616;2024-03-02T20:37:47;96400;;;8.6;70.0
27358;BME280;14831;50.474;7.616;2024-03-02T20:42:47;96400;;;8.6;70.7
27358;BME280;14831;50.474;7.616;2024-03-02T20:47:47;96400;;;8.5;71.4
27358;BME280;14831;50.474;7.616;2024-03-02T20:52:47;96400;;;8.5;71.9
27358;BME280;14831;50.474;7.616;2024-03-02T20:57:47;96400;;;8.5;72.7
27358;BME280;14831;50.474;7.616;2024-03-02T21:02:47;96390;;;8.4;73.1
27358;BME280;14831;50.474;7.616;2024-03-02T21:07:47;96380;;;8.3;73.6
27358;BME280;14831;50.474;7.616;2024-03-02T21:12:47;96370;;;8.2;74.2
27358;BME280;14831;50.474;7.616;2024-03-02T21:17:47;96380;;;8.2;74.5
27358;BME280;14831;50.474;7.616;2024-03-02T21:22:47;96390;;;8.2;75.0
27358;BME280;14831;50.474;7.616;2024-03-02T21:27:47;96390;;;8.1;75.5
27358;BME280;14831;50.474;7.616;2024-03-02T21:32:47;96370;;;8.1;75.7
27358;BME280;14831;50.474;7.616;2024-03-02T21:37:47;96380;;;8.1;75.8
27358;BME280;14831;50.474;7.616;2024-03-02T21:42:47;96390;;;8.2;76.1
27358;BME280;14831;50.474;7.616;2024-03-02T21:47:47;96380;;;8.2;76.1
27358;BME280;14831;50.474;7.616;2024-03-02T21:52:47;96390;;;8.2;76.4
27358;BME280;14831;50.474;7.616;2024-03-02T21:57:47;96400;;;8.2;76.4
27358;BME280;14831;50.474;7.616;2024-03-02T22:02:47;96410;;;8.2;76.2
27358;BME280;14831;50.474;7.616;2024-03-02T22:07:47;96420;;;8.3;75.9
27358;BME280;14831;50.474;7.616;2024-03-02T22:12:47;96420;;;8.3;76.0
27358;BME280;14831;50.474;7.616;2024-03-02T22:17:47;96430;;;8.3;76.1
27358;BME280;14831;50.474;7.616;2024-03-02T22:22:47;96430;;;8.3;76.1
27358;BME280;14831;50.474;7.616;2024-03-02T22:27:47;96430;;;8.3;76.0
27358;BME280;14831;50.474;7.616;2024-03-02T22:32:47;96440;;;8.3;76.2
27358;BME280;14831;50.474;7.616;2024-03-02T22:37:47;96440;;;8.3;76.3
27358;BME280;14831;50.474;7.616;2024-03-02T22:42:47;96460;;;8.3;76.2
27358;BME280;14831;50.474;7.616;2024-03-02T22:47:47;96450;;;8.3;76.3
27358;BME280;14831;50.474;7.616;2024-03-02T22:52:47;96440;;;8.2;76.7
27358;BME280;14831;50.474;7.616;2024-03-02T22:57:47;96440;;;8.2;77.1
27358;BME280;14831;50.474;7.616;2024-03-02T23:02:47;96440;;;8.1;77.3
27358;BME280;14831;50.474;7.616;2024-03-02T23:07:47;96430;;;8.1;77.3
27358;BME280;14831;50.474;7.616;2024-03-02T23:12:47;96410;;;8.1;77.6
27358;BME280;14831;50.474;7.616;2024-03-02T23:17:47;96390;;;8.1;77.9
27358;BME280;14831;50.474;7.616;2024-03-02T23:22:47;96390;;;8.1;78.0
27358;BME280;14831;50.474;7.616;2024-03-02T23:27:47;96400;;;8.0;77.9
27358;BME280;14831;50.474;7.616;2024-03-02T23:32:47;96400;;;8.0;78.0
27358;BME280;14831;50.474;7.616;2024-03-02T23:37:47;96400;;;7.9;78.4
27358;BME280;14831;50.474;7.616;2024-03-02T23:42:47;96410;;;7.8;78.9
27358;BME280;14831;50.474;7.616;2024-03-02T23:47:47;96400;;;7.7;79.2
27358;BME280;14831;50.474;7.616;2024-03-02T23:52:47;96390;;;7.6;79.9
27358;BME280;14831;50.474;7.616;2024-03-02T23:57:47;96390;;;7.4;80.4
